createdAt,value
2023-05-21T00:00:25.273Z,13.05
2023-05-21T00:01:29.915Z,13.04
2023-05-21T00:02:34.708Z,13.03
2023-05-21T00:03:39.541Z,13.03
2023-05-21T00:04:44.189Z,13.04
2023-05-21T00:05:48.931Z,13.04
2023-05-21T00:06:54.949Z,13.03
2023-05-21T00:07:59.802Z,13.02
2023-05-21T00:09:05.591Z,13.01
2023-05-21T00:10:11.944Z,13.01
2023-05-21T00:11:16.996Z,13.01
2023-05-21T00:12:22.123Z,13.02
2023-05-21T00:13:27.280Z,13.02
2023-05-21T00:14:32.397Z,13.00
2023-05-21T00:15:37.325Z,12.97
2023-05-21T00:16:42.877Z,12.93
2023-05-21T00:17:47.491Z,12.90
2023-05-21T00:18:52.368Z,12.86
2023-05-21T00:19:57.385Z,12.85
2023-05-21T00:21:02.239Z,12.84
2023-05-21T00:22:08.864Z,12.80
2023-05-21T00:23:13.877Z,12.77
2023-05-21T00:24:18.558Z,12.77
2023-05-21T00:25:23.144Z,12.75
2023-05-21T00:26:28.127Z,12.73
2023-05-21T00:27:34.521Z,12.70
2023-05-21T00:28:39.623Z,12.67
2023-05-21T00:29:44.731Z,12.65
2023-05-21T00:30:49.328Z,12.65
2023-05-21T00:31:54.415Z,12.63
2023-05-21T00:32:56.916Z,12.62
2023-05-21T00:34:01.233Z,12.60
2023-05-21T00:35:07.291Z,12.60
2023-05-21T00:36:12.121Z,12.60
2023-05-21T00:37:17.354Z,12.57
2023-05-21T00:38:21.977Z,12.55
2023-05-21T00:39:26.598Z,12.54
2023-05-21T00:40:32.651Z,12.52
2023-05-21T00:41:37.002Z,12.51
2023-05-21T00:42:41.484Z,12.51
2023-05-21T00:43:46.261Z,12.50
2023-05-21T00:44:50.805Z,12.50
2023-05-21T00:45:55.428Z,12.50
2023-05-21T00:46:59.910Z,12.47
2023-05-21T00:48:06.807Z,12.47
2023-05-21T00:49:12.573Z,12.46
2023-05-21T00:50:17.187Z,12.47
2023-05-21T00:51:22.191Z,12.46
2023-05-21T00:52:27.302Z,12.47
2023-05-21T00:53:32.056Z,12.46
2023-05-21T00:54:36.683Z,12.44
2023-05-21T00:55:41.899Z,12.44
2023-05-21T00:56:47.129Z,12.44
2023-05-21T00:57:52.566Z,12.44
2023-05-21T00:58:57.599Z,12.44
2023-05-21T01:00:02.612Z,12.43
2023-05-21T01:01:07.374Z,12.43
2023-05-21T01:02:12.551Z,12.44
2023-05-21T01:03:17.677Z,12.44
2023-05-21T01:04:22.243Z,12.44
2023-05-21T01:05:27.249Z,12.44
2023-05-21T01:06:32.340Z,12.45
2023-05-21T01:07:39.062Z,12.44
2023-05-21T01:08:43.388Z,12.44
2023-05-21T01:09:48.400Z,12.43
2023-05-21T01:15:01.448Z,12.40
2023-05-21T01:16:08.045Z,12.39
2023-05-21T01:17:13.248Z,12.38
2023-05-21T01:18:17.860Z,12.37
2023-05-21T01:19:21.456Z,12.37
2023-05-21T01:20:26.061Z,12.36
2023-05-21T01:21:30.683Z,12.35
2023-05-21T01:22:36.014Z,12.33
2023-05-21T01:23:40.528Z,12.33
2023-05-21T01:24:46.818Z,12.32
2023-05-21T01:25:51.941Z,12.30
2023-05-21T01:26:57.134Z,12.27
2023-05-21T01:28:02.404Z,12.25
2023-05-21T01:29:08.932Z,12.23
2023-05-21T01:30:15.753Z,12.22
2023-05-21T01:31:24.730Z,12.24
2023-05-21T01:33:41.223Z,12.36
2023-05-21T01:36:04.358Z,12.38
2023-05-21T01:38:45.311Z,12.35
2023-05-21T01:41:08.233Z,12.33
2023-05-21T01:42:13.474Z,12.22
2023-05-21T01:43:18.184Z,12.21
2023-05-21T01:44:23.400Z,12.21
2023-05-21T01:45:28.512Z,12.20
2023-05-21T01:46:33.441Z,12.18
2023-05-21T01:47:38.510Z,12.18
2023-05-21T01:48:43.619Z,12.17
2023-05-21T01:49:50.218Z,12.16
2023-05-21T01:50:55.603Z,12.14
2023-05-21T01:52:01.701Z,12.09
2023-05-21T01:53:06.861Z,12.07
2023-05-21T01:54:11.560Z,12.08
2023-05-21T01:55:16.646Z,12.06
2023-05-21T01:56:21.144Z,12.05
2023-05-21T01:57:26.487Z,12.00
2023-05-21T01:58:32.011Z,11.98
2023-05-21T01:59:37.495Z,11.96
2023-05-21T02:00:41.927Z,11.94
2023-05-21T02:01:47.179Z,11.92
2023-05-21T02:02:52.265Z,11.90
2023-05-21T02:03:57.446Z,11.86
2023-05-21T02:05:03.057Z,11.85
2023-05-21T02:06:08.119Z,11.85
2023-05-21T02:07:13.339Z,11.84
2023-05-21T02:08:18.661Z,11.83
2023-05-21T02:09:23.284Z,11.83
2023-05-21T02:10:28.483Z,11.81
2023-05-21T02:11:33.628Z,11.78
2023-05-21T02:12:38.759Z,11.75
2023-05-21T02:13:43.593Z,11.72
2023-05-21T02:14:48.200Z,11.70
2023-05-21T02:15:52.686Z,11.71
2023-05-21T02:16:57.748Z,11.69
2023-05-21T02:18:02.427Z,11.71
2023-05-21T02:19:07.521Z,11.69
2023-05-21T02:20:11.917Z,11.67
2023-05-21T02:21:16.231Z,11.64
2023-05-21T02:22:20.823Z,11.63
2023-05-21T02:23:26.063Z,11.62
2023-05-21T02:24:30.695Z,11.61
2023-05-21T02:25:36.113Z,11.62
2023-05-21T02:26:41.491Z,11.64
2023-05-21T02:27:46.542Z,11.63
2023-05-21T02:28:51.916Z,11.63
2023-05-21T02:29:56.251Z,11.60
2023-05-21T02:31:01.104Z,11.59
2023-05-21T02:32:07.343Z,11.55
2023-05-21T02:33:12.483Z,11.54
2023-05-21T02:34:17.736Z,11.51
2023-05-21T02:35:22.795Z,11.53
2023-05-21T02:36:27.353Z,11.54
2023-05-21T02:37:32.861Z,11.53
2023-05-21T02:38:38.020Z,11.54
2023-05-21T02:39:43.132Z,11.51
2023-05-21T02:40:46.016Z,11.51
2023-05-21T02:41:50.253Z,11.51
2023-05-21T02:42:54.648Z,11.52
2023-05-21T02:43:59.208Z,11.53
2023-05-21T02:45:04.860Z,11.54
2023-05-21T02:46:11.089Z,11.52
2023-05-21T02:47:16.318Z,11.52
2023-05-21T02:48:21.060Z,11.51
2023-05-21T02:49:26.082Z,11.51
2023-05-21T02:50:31.329Z,11.51
2023-05-21T02:51:36.402Z,11.50
2023-05-21T02:52:41.215Z,11.51
2023-05-21T02:53:45.799Z,11.51
2023-05-21T02:54:51.330Z,11.53
2023-05-21T02:55:55.870Z,11.54
2023-05-21T02:57:01.343Z,11.54
2023-05-21T02:58:06.905Z,11.53
2023-05-21T02:59:13.047Z,11.50
2023-05-21T03:00:17.400Z,11.48
2023-05-21T03:01:22.291Z,11.47
2023-05-21T03:02:27.431Z,11.48
2023-05-21T03:03:32.448Z,11.51
2023-05-21T03:04:36.798Z,11.53
2023-05-21T03:05:41.215Z,11.54
2023-05-21T03:06:46.896Z,11.55
2023-05-21T03:07:51.986Z,11.55
2023-05-21T03:08:57.176Z,11.55
2023-05-21T03:10:02.422Z,11.57
2023-05-21T03:11:06.952Z,11.61
2023-05-21T03:12:11.405Z,11.63
2023-05-21T03:13:16.417Z,11.67
2023-05-21T03:14:21.542Z,11.69
2023-05-21T03:15:26.143Z,11.71
2023-05-21T03:16:30.992Z,11.71
2023-05-21T03:17:36.280Z,11.69
2023-05-21T03:18:41.351Z,11.59
2023-05-21T03:19:46.766Z,11.55
2023-05-21T03:20:51.456Z,11.53
2023-05-21T03:21:56.004Z,11.53
2023-05-21T03:23:01.122Z,11.52
2023-05-21T03:24:10.173Z,11.48
2023-05-21T03:25:15.298Z,11.46
2023-05-21T03:26:20.503Z,11.46
2023-05-21T03:27:26.206Z,11.47
2023-05-21T03:28:31.339Z,11.49
2023-05-21T03:29:36.842Z,11.50
2023-05-21T03:30:41.511Z,11.50
2023-05-21T03:31:48.436Z,11.49
2023-05-21T03:32:53.479Z,11.47
2023-05-21T03:33:58.092Z,11.48
2023-05-21T03:35:04.245Z,11.47
2023-05-21T03:36:10.594Z,11.50
2023-05-21T03:37:15.866Z,11.49
2023-05-21T03:38:20.456Z,11.41
2023-05-21T03:39:24.972Z,11.38
2023-05-21T03:40:29.524Z,11.36
2023-05-21T03:41:34.748Z,11.38
2023-05-21T03:42:41.645Z,11.40
2023-05-21T03:43:46.818Z,11.42
2023-05-21T03:44:51.427Z,11.45
2023-05-21T03:45:58.275Z,11.47
2023-05-21T03:47:04.884Z,11.48
2023-05-21T03:48:11.268Z,11.51
2023-05-21T03:49:16.865Z,11.53
2023-05-21T03:50:22.340Z,11.56
2023-05-21T03:51:27.162Z,11.59
2023-05-21T03:52:32.356Z,11.61
2023-05-21T03:53:37.979Z,11.62
2023-05-21T03:54:44.133Z,11.60
2023-05-21T03:55:49.212Z,11.60
2023-05-21T03:56:53.960Z,11.63
2023-05-21T03:57:59.490Z,11.66
2023-05-21T03:59:05.265Z,11.69
2023-05-21T04:00:14.122Z,11.70
2023-05-21T04:01:21.405Z,11.62
2023-05-21T04:02:28.359Z,11.58
2023-05-21T04:03:33.835Z,11.49
2023-05-21T04:04:38.795Z,11.49
2023-05-21T04:05:46.948Z,11.47
2023-05-21T04:06:53.912Z,11.51
2023-05-21T04:07:59.560Z,11.53
2023-05-21T04:09:04.914Z,11.52
2023-05-21T04:10:10.333Z,11.53
2023-05-21T04:11:15.534Z,11.57
2023-05-21T04:12:20.897Z,11.61
2023-05-21T04:13:25.623Z,11.63
2023-05-21T04:14:30.630Z,11.67
2023-05-21T04:15:35.655Z,11.70
2023-05-21T04:16:40.495Z,11.73
2023-05-21T04:17:45.051Z,11.77
2023-05-21T04:18:50.136Z,11.77
2023-05-21T04:19:55.183Z,11.77
2023-05-21T04:21:00.232Z,11.78
2023-05-21T04:22:05.003Z,11.80
2023-05-21T04:23:10.346Z,11.81
2023-05-21T04:24:15.388Z,11.82
2023-05-21T04:25:24.996Z,11.85
2023-05-21T04:26:29.529Z,11.87
2023-05-21T04:27:35.179Z,11.91
2023-05-21T04:28:39.848Z,11.96
2023-05-21T04:29:44.464Z,12.00
2023-05-21T04:30:49.755Z,12.05
2023-05-21T04:31:54.837Z,12.09
2023-05-21T04:33:00.113Z,12.13
2023-05-21T04:34:05.057Z,12.17
2023-05-21T04:35:09.768Z,12.20
2023-05-21T04:36:14.396Z,12.23
2023-05-21T04:37:18.841Z,12.24
2023-05-21T04:38:23.928Z,12.27
2023-05-21T04:39:28.755Z,12.32
2023-05-21T04:40:33.687Z,12.37
2023-05-21T04:41:41.594Z,12.44
2023-05-21T04:43:53.673Z,12.63
2023-05-21T04:44:59.125Z,12.55
2023-05-21T04:46:04.849Z,12.59
2023-05-21T04:47:09.547Z,12.64
2023-05-21T04:48:14.738Z,12.70
2023-05-21T04:49:19.375Z,12.76
2023-05-21T04:50:24.097Z,12.84
2023-05-21T04:51:28.760Z,12.89
2023-05-21T04:52:33.863Z,12.93
2023-05-21T04:53:38.472Z,12.98
2023-05-21T04:54:43.470Z,13.05
2023-05-21T04:55:49.217Z,13.12
2023-05-21T04:56:53.663Z,13.22
2023-05-21T04:57:59.077Z,13.31
2023-05-21T04:59:05.613Z,13.41
2023-05-21T05:00:11.953Z,13.47
2023-05-21T05:01:18.386Z,13.59
2023-05-21T05:02:24.119Z,13.67
2023-05-21T05:03:29.105Z,13.74
2023-05-21T05:04:32.531Z,13.78
2023-05-21T05:05:37.039Z,13.81
2023-05-21T05:06:41.748Z,13.81
2023-05-21T05:07:46.214Z,13.85
2023-05-21T05:08:51.818Z,13.92
2023-05-21T05:09:58.631Z,13.98
2023-05-21T05:11:16.638Z,14.04
2023-05-21T05:12:21.226Z,14.03
2023-05-21T05:13:26.488Z,13.99
2023-05-21T05:14:31.733Z,13.93
2023-05-21T05:15:37.159Z,13.92
2023-05-21T05:16:42.103Z,13.93
2023-05-21T05:17:46.761Z,13.93
2023-05-21T05:18:51.205Z,13.95
2023-05-21T05:19:56.005Z,13.93
2023-05-21T05:21:00.843Z,13.97
2023-05-21T05:22:05.547Z,14.01
2023-05-21T05:23:11.038Z,14.02
2023-05-21T05:24:15.711Z,14.04
2023-05-21T05:25:21.416Z,14.04
2023-05-21T05:26:26.699Z,14.08
2023-05-21T05:27:31.846Z,14.10
2023-05-21T05:28:37.003Z,14.13
2023-05-21T05:29:41.891Z,14.18
2023-05-21T05:30:47.138Z,14.25
2023-05-21T05:32:00.016Z,14.30
2023-05-21T05:33:04.704Z,14.36
2023-05-21T05:34:09.498Z,14.44
2023-05-21T05:35:15.172Z,14.56
2023-05-21T05:36:20.263Z,14.62
2023-05-21T05:37:25.383Z,14.67
2023-05-21T05:38:29.940Z,14.70
2023-05-21T05:39:34.322Z,14.77
2023-05-21T05:40:39.459Z,14.83
2023-05-21T05:41:44.739Z,14.89
2023-05-21T05:42:49.301Z,14.95
2023-05-21T05:43:53.940Z,14.99
2023-05-21T05:44:58.872Z,15.07
2023-05-21T05:46:03.653Z,15.13
2023-05-21T05:47:08.337Z,15.21
2023-05-21T05:48:13.394Z,15.23
2023-05-21T05:49:18.084Z,15.29
2023-05-21T05:50:23.799Z,15.37
2023-05-21T05:51:28.452Z,15.43
2023-05-21T05:52:33.676Z,15.49
2023-05-21T05:53:38.765Z,15.59
2023-05-21T05:54:43.233Z,15.67
2023-05-21T05:55:47.932Z,15.75
2023-05-21T05:56:52.731Z,15.81
2023-05-21T05:57:55.168Z,15.89
2023-05-21T05:59:01.094Z,15.98
2023-05-21T06:00:08.343Z,16.03
2023-05-21T06:01:15.362Z,16.08
2023-05-21T06:02:20.703Z,16.13
2023-05-21T06:03:25.199Z,16.19
2023-05-21T06:04:30.901Z,16.25
2023-05-21T06:05:36.551Z,16.28
2023-05-21T06:06:41.516Z,16.31
2023-05-21T06:07:46.563Z,16.24
2023-05-21T06:08:51.527Z,16.20
2023-05-21T06:09:57.165Z,16.20
2023-05-21T06:11:02.177Z,16.19
2023-05-21T06:12:12.187Z,16.17
2023-05-21T06:13:15.712Z,16.15
2023-05-21T06:14:20.895Z,16.16
2023-05-21T06:16:47.851Z,16.28
2023-05-21T06:17:52.376Z,16.34
2023-05-21T06:18:56.988Z,16.41
2023-05-21T06:20:02.320Z,16.47
2023-05-21T06:21:07.404Z,16.54
2023-05-21T06:22:12.377Z,16.56
2023-05-21T06:23:17.462Z,16.62
2023-05-21T06:24:24.204Z,16.66
2023-05-21T06:25:30.252Z,16.67
2023-05-21T06:26:35.479Z,16.70
2023-05-21T06:27:40.618Z,16.71
2023-05-21T06:28:47.256Z,16.74
2023-05-21T06:29:51.716Z,16.78
2023-05-21T06:30:56.462Z,16.84
2023-05-21T06:32:02.555Z,16.90
2023-05-21T06:33:08.084Z,16.90
2023-05-21T06:34:12.703Z,16.84
2023-05-21T06:35:17.979Z,16.73
2023-05-21T06:36:23.153Z,16.72
2023-05-21T06:37:28.666Z,16.71
2023-05-21T06:38:33.434Z,16.71
2023-05-21T06:39:38.044Z,16.72
2023-05-21T06:40:43.892Z,16.74
2023-05-21T06:41:49.544Z,16.76
2023-05-21T06:43:12.024Z,16.79
2023-05-21T06:44:16.992Z,16.83
2023-05-21T06:45:21.261Z,16.86
2023-05-21T06:46:28.283Z,16.91
2023-05-21T06:47:33.776Z,16.96
2023-05-21T06:48:38.916Z,16.96
2023-05-21T06:49:43.577Z,17.02
2023-05-21T06:50:48.378Z,17.07
2023-05-21T06:51:52.978Z,17.11
2023-05-21T06:52:57.710Z,17.17
2023-05-21T06:54:02.330Z,17.18
2023-05-21T06:55:09.255Z,17.18
2023-05-21T06:56:21.626Z,17.19
2023-05-21T06:57:26.800Z,17.18
2023-05-21T06:58:31.486Z,17.15
2023-05-21T06:59:36.697Z,17.10
2023-05-21T07:00:41.999Z,17.10
2023-05-21T07:01:47.011Z,17.11
2023-05-21T07:02:52.238Z,17.04
2023-05-21T07:03:56.769Z,17.02
2023-05-21T07:05:02.592Z,16.97
2023-05-21T07:06:07.778Z,16.96
2023-05-21T07:07:12.934Z,17.00
2023-05-21T07:08:18.065Z,17.09
2023-05-21T07:09:23.150Z,17.11
2023-05-21T07:10:27.726Z,17.10
2023-05-21T07:11:33.430Z,17.15
2023-05-21T07:12:38.455Z,17.22
2023-05-21T07:13:44.072Z,17.31
2023-05-21T07:14:49.282Z,17.37
2023-05-21T07:15:54.402Z,17.42
2023-05-21T07:16:59.170Z,17.43
2023-05-21T07:18:04.200Z,17.43
2023-05-21T07:19:09.094Z,17.47
2023-05-21T07:20:13.948Z,17.49
2023-05-21T07:21:19.441Z,17.46
2023-05-21T07:22:27.393Z,17.41
2023-05-21T07:23:32.029Z,17.41
2023-05-21T07:24:37.032Z,17.42
2023-05-21T07:25:41.566Z,17.42
2023-05-21T07:26:46.845Z,17.41
2023-05-21T07:27:51.435Z,17.41
2023-05-21T07:28:56.193Z,17.40
2023-05-21T07:30:00.696Z,17.35
2023-05-21T07:31:06.876Z,17.38
2023-05-21T07:32:13.346Z,17.36
2023-05-21T07:33:18.529Z,17.34
2023-05-21T07:34:24.559Z,17.39
2023-05-21T07:35:29.671Z,17.46
2023-05-21T07:36:34.374Z,17.52
2023-05-21T07:37:39.521Z,17.57
2023-05-21T07:38:42.805Z,17.60
2023-05-21T07:39:47.444Z,17.57
2023-05-21T07:40:51.862Z,17.58
2023-05-21T07:41:56.407Z,17.59
2023-05-21T07:43:01.160Z,17.55
2023-05-21T07:44:05.664Z,17.54
2023-05-21T07:45:11.053Z,17.53
2023-05-21T07:46:19.100Z,17.56
2023-05-21T07:47:25.533Z,17.54
2023-05-21T07:48:30.674Z,17.56
2023-05-21T07:49:37.586Z,17.57
2023-05-21T07:50:39.949Z,17.62
2023-05-21T07:51:45.414Z,17.68
2023-05-21T07:52:50.094Z,17.76
2023-05-21T07:53:55.344Z,17.85
2023-05-21T07:55:03.406Z,17.84
2023-05-21T07:56:09.754Z,17.87
2023-05-21T07:57:15.130Z,17.92
2023-05-21T07:58:30.922Z,17.98
2023-05-21T07:59:35.325Z,18.00
2023-05-21T08:05:12.709Z,18.01
2023-05-21T08:06:18.386Z,17.99
2023-05-21T08:07:23.444Z,18.00
2023-05-21T08:08:28.072Z,17.83
2023-05-21T08:09:34.097Z,17.87
2023-05-21T08:10:39.248Z,17.86
2023-05-21T08:11:45.366Z,17.88
2023-05-21T08:12:50.651Z,17.91
2023-05-21T08:13:55.805Z,17.93
2023-05-21T08:15:00.183Z,18.00
2023-05-21T08:16:07.023Z,17.99
2023-05-21T08:17:12.226Z,18.03
2023-05-21T08:18:16.660Z,18.04
2023-05-21T08:19:21.441Z,18.03
2023-05-21T08:20:27.069Z,18.06
2023-05-21T08:21:31.524Z,18.07
2023-05-21T08:22:36.738Z,18.10
2023-05-21T08:23:41.276Z,18.11
2023-05-21T08:24:46.368Z,18.15
2023-05-21T08:25:50.448Z,18.20
2023-05-21T08:26:55.915Z,18.28
2023-05-21T08:28:01.274Z,18.33
2023-05-21T08:29:05.899Z,18.37
2023-05-21T08:30:10.103Z,18.43
2023-05-21T08:31:15.525Z,18.43
2023-05-21T08:32:20.263Z,18.44
2023-05-21T08:33:25.412Z,18.45
2023-05-21T08:34:30.694Z,18.46
2023-05-21T08:35:38.092Z,18.44
2023-05-21T08:36:49.039Z,18.40
2023-05-21T08:38:12.159Z,18.35
2023-05-21T08:39:21.994Z,18.23
2023-05-21T08:40:26.438Z,18.19
2023-05-21T08:41:33.111Z,18.21
2023-05-21T08:42:52.064Z,18.25
2023-05-21T08:43:58.493Z,18.25
2023-05-21T08:45:04.249Z,18.35
2023-05-21T08:46:08.836Z,18.44
2023-05-21T08:47:16.416Z,18.56
2023-05-21T08:48:20.758Z,18.62
2023-05-21T08:49:27.152Z,18.61
2023-05-21T08:50:33.053Z,18.63
2023-05-21T08:51:39.789Z,18.69
2023-05-21T08:52:44.475Z,18.67
2023-05-21T08:53:49.121Z,18.67
2023-05-21T08:54:54.375Z,18.65
2023-05-21T08:55:59.485Z,18.60
2023-05-21T08:57:06.593Z,18.59
2023-05-21T08:58:10.084Z,18.56
2023-05-21T08:59:14.796Z,18.52
2023-05-21T09:00:18.977Z,18.52
2023-05-21T09:01:26.434Z,18.52
2023-05-21T09:02:42.272Z,18.53
2023-05-21T09:03:47.103Z,18.53
2023-05-21T09:06:04.554Z,18.65
2023-05-21T09:07:10.851Z,18.59
2023-05-21T09:08:31.460Z,18.60
2023-05-21T09:09:43.988Z,18.67
2023-05-21T09:10:50.679Z,18.75
2023-05-21T09:11:56.574Z,18.75
2023-05-21T09:13:02.380Z,18.81
2023-05-21T09:14:07.205Z,18.84
2023-05-21T09:15:14.111Z,18.89
2023-05-21T09:16:19.819Z,18.94
2023-05-21T09:17:25.030Z,18.95
2023-05-21T09:18:32.080Z,18.94
2023-05-21T09:19:38.596Z,18.89
2023-05-21T09:20:44.088Z,18.91
2023-05-21T09:21:48.627Z,18.95
2023-05-21T09:22:55.338Z,19.03
2023-05-21T09:24:01.558Z,19.04
2023-05-21T09:25:09.818Z,19.06
2023-05-21T09:26:14.820Z,19.09
2023-05-21T09:27:20.938Z,19.13
2023-05-21T09:28:25.552Z,19.16
2023-05-21T09:29:30.312Z,19.20
2023-05-21T09:30:36.140Z,19.23
2023-05-21T09:31:46.403Z,19.24
2023-05-21T09:32:58.275Z,19.19
2023-05-21T09:34:03.387Z,19.15
2023-05-21T09:36:23.686Z,19.29
2023-05-21T09:37:30.335Z,19.23
2023-05-21T09:38:36.479Z,19.29
2023-05-21T09:39:42.718Z,19.38
2023-05-21T09:40:47.891Z,19.40
2023-05-21T09:41:52.997Z,19.45
2023-05-21T09:42:58.110Z,19.35
2023-05-21T09:44:03.880Z,19.38
2023-05-21T09:45:09.677Z,19.35
2023-05-21T09:46:14.836Z,19.26
2023-05-21T09:47:22.312Z,19.16
2023-05-21T09:48:41.091Z,19.14
2023-05-21T09:49:48.012Z,19.14
2023-05-21T09:50:53.315Z,19.15
2023-05-21T09:52:01.532Z,19.18
2023-05-21T09:53:06.153Z,19.19
2023-05-21T09:54:11.215Z,19.23
2023-05-21T09:55:17.092Z,19.27
2023-05-21T09:57:32.866Z,19.42
2023-05-21T09:58:37.955Z,19.35
2023-05-21T09:59:43.121Z,19.34
2023-05-21T10:00:48.317Z,19.32
2023-05-21T10:01:53.631Z,19.32
2023-05-21T10:02:59.362Z,19.41
2023-05-21T10:04:06.827Z,19.51
2023-05-21T10:05:09.590Z,19.60
2023-05-21T10:06:14.857Z,19.65
2023-05-21T10:07:24.678Z,19.71
2023-05-21T10:08:29.348Z,19.60
2023-05-21T10:09:35.001Z,19.55
2023-05-21T10:10:39.480Z,19.49
2023-05-21T10:11:46.620Z,19.49
2023-05-21T10:14:25.627Z,19.61
2023-05-21T10:15:30.596Z,19.52
2023-05-21T10:16:34.047Z,19.44
2023-05-21T10:17:39.168Z,19.49
2023-05-21T10:18:43.939Z,19.53
2023-05-21T10:19:49.848Z,19.63
2023-05-21T10:20:55.037Z,19.71
2023-05-21T10:21:57.925Z,19.81
2023-05-21T10:23:02.169Z,19.85
2023-05-21T10:24:08.802Z,19.86
2023-05-21T10:25:14.901Z,19.82
2023-05-21T10:26:19.684Z,19.68
2023-05-21T10:27:24.147Z,19.56
2023-05-21T10:28:29.179Z,19.52
2023-05-21T10:29:33.870Z,19.54
2023-05-21T10:30:38.858Z,19.54
2023-05-21T10:31:44.225Z,19.54
2023-05-21T10:32:49.359Z,19.58
2023-05-21T10:33:55.224Z,19.65
2023-05-21T10:34:59.303Z,19.71
2023-05-21T10:36:04.944Z,19.76
2023-05-21T10:37:10.321Z,19.78
2023-05-21T10:38:14.556Z,19.75
2023-05-21T10:39:19.366Z,19.77
2023-05-21T10:40:24.477Z,19.83
2023-05-21T10:41:29.565Z,19.87
2023-05-21T10:42:35.561Z,19.94
2023-05-21T10:43:47.761Z,20.00
2023-05-21T10:45:17.155Z,19.99
2023-05-21T10:46:28.123Z,19.91
2023-05-21T10:48:02.556Z,19.69
2023-05-21T10:49:16.887Z,19.63
2023-05-21T10:50:34.912Z,19.69
2023-05-21T10:52:12.817Z,19.74
2023-05-21T10:53:32.760Z,19.85
2023-05-21T10:54:38.818Z,19.99
2023-05-21T10:55:59.077Z,20.11
2023-05-21T10:57:10.677Z,20.19
2023-05-21T10:58:22.697Z,20.28
2023-05-21T10:59:46.665Z,20.31
2023-05-21T11:00:52.200Z,20.31
2023-05-21T11:01:57.399Z,20.26
2023-05-21T11:03:02.859Z,20.28
2023-05-21T11:04:07.131Z,20.30
2023-05-21T11:05:12.296Z,20.28
2023-05-21T11:06:24.894Z,20.25
2023-05-21T11:07:56.248Z,20.27
2023-05-21T11:10:42.065Z,20.42
2023-05-21T11:11:58.717Z,20.42
2023-05-21T11:13:17.088Z,20.56
2023-05-21T11:14:35.190Z,20.67
2023-05-21T11:16:03.960Z,20.65
2023-05-21T11:17:15.233Z,20.65
2023-05-21T11:18:20.312Z,20.61
2023-05-21T11:19:27.186Z,20.58
2023-05-21T11:20:35.866Z,20.58
2023-05-21T11:21:40.583Z,20.60
2023-05-21T11:22:44.423Z,20.59
2023-05-21T11:23:53.961Z,20.60
2023-05-21T11:25:00.607Z,20.59
2023-05-21T11:26:05.470Z,20.61
2023-05-21T11:27:10.597Z,20.61
2023-05-21T11:28:15.301Z,20.62
2023-05-21T11:29:20.935Z,20.62
2023-05-21T11:30:27.715Z,20.50
2023-05-21T11:31:32.221Z,20.49
2023-05-21T11:33:49.994Z,20.60
2023-05-21T11:34:54.937Z,20.41
2023-05-21T11:36:00.689Z,20.42
2023-05-21T11:37:21.060Z,20.32
2023-05-21T11:38:25.794Z,20.34
2023-05-21T11:39:30.533Z,20.45
2023-05-21T11:40:36.375Z,20.49
2023-05-21T11:42:03.234Z,20.58
2023-05-21T11:43:07.295Z,20.71
2023-05-21T11:44:12.129Z,20.86
2023-05-21T11:45:18.164Z,20.94
2023-05-21T11:46:23.927Z,21.03
2023-05-21T11:47:29.660Z,21.12
2023-05-21T11:48:34.774Z,21.20
2023-05-21T11:49:40.542Z,21.25
2023-05-21T11:50:45.281Z,21.29
2023-05-21T11:51:50.400Z,21.32
2023-05-21T11:52:55.442Z,21.31
2023-05-21T11:54:00.148Z,21.39
2023-05-21T11:55:05.196Z,21.44
2023-05-21T11:56:09.699Z,21.49
2023-05-21T11:57:14.533Z,21.44
2023-05-21T11:58:20.545Z,21.35
2023-05-21T11:59:25.178Z,21.32
2023-05-21T12:00:29.912Z,21.32
2023-05-21T12:01:35.108Z,21.32
2023-05-21T12:02:39.925Z,21.30
2023-05-21T12:03:44.723Z,21.34
2023-05-21T12:04:51.354Z,21.33
2023-05-21T12:05:56.548Z,21.27
2023-05-21T12:07:01.002Z,21.25
2023-05-21T12:08:06.574Z,21.20
2023-05-21T12:09:12.470Z,21.13
2023-05-21T12:10:18.367Z,21.15
2023-05-21T12:11:23.240Z,21.13
2023-05-21T12:12:38.547Z,21.11
2023-05-21T12:13:35.974Z,21.10
2023-05-21T12:14:38.660Z,21.08
2023-05-21T12:15:42.920Z,21.05
2023-05-21T12:16:48.381Z,20.97
2023-05-21T12:17:53.632Z,20.91
2023-05-21T12:18:58.750Z,20.91
2023-05-21T12:20:03.415Z,20.85
2023-05-21T12:21:08.942Z,20.82
2023-05-21T12:22:14.767Z,20.77
2023-05-21T12:23:23.495Z,20.75
2023-05-21T12:24:29.011Z,20.73
2023-05-21T12:25:33.855Z,20.68
2023-05-21T12:26:38.967Z,20.67
2023-05-21T12:27:43.998Z,20.65
2023-05-21T12:28:49.192Z,20.57
2023-05-21T12:29:53.835Z,20.59
2023-05-21T12:30:58.414Z,20.61
2023-05-21T12:32:04.120Z,20.64
2023-05-21T12:33:09.523Z,20.63
2023-05-21T12:34:14.195Z,20.55
2023-05-21T12:35:23.098Z,20.56
2023-05-21T12:36:29.553Z,20.59
2023-05-21T12:37:34.052Z,20.55
2023-05-21T12:38:37.121Z,20.59
2023-05-21T12:40:51.972Z,20.84
2023-05-21T12:41:54.211Z,20.80
2023-05-21T12:42:58.534Z,20.84
2023-05-21T12:44:03.258Z,20.91
2023-05-21T12:45:07.900Z,20.97
2023-05-21T12:46:12.532Z,21.03
2023-05-21T12:47:17.773Z,21.02
2023-05-21T12:48:22.539Z,21.00
2023-05-21T12:49:34.863Z,21.03
2023-05-21T12:50:41.712Z,20.95
2023-05-21T12:51:47.267Z,20.94
2023-05-21T12:52:52.385Z,20.93
2023-05-21T12:53:56.820Z,20.96
2023-05-21T12:55:01.932Z,20.97
2023-05-21T12:57:20.670Z,21.14
2023-05-21T12:58:24.943Z,21.11
2023-05-21T12:59:30.123Z,21.15
2023-05-21T13:00:34.931Z,21.21
2023-05-21T13:01:39.557Z,21.27
2023-05-21T13:02:44.393Z,21.38
2023-05-21T13:03:49.718Z,21.46
2023-05-21T13:05:03.193Z,21.48
2023-05-21T13:06:09.666Z,21.40
2023-05-21T13:07:14.235Z,21.38
2023-05-21T13:08:19.165Z,21.37
2023-05-21T13:09:24.355Z,21.38
2023-05-21T13:10:29.542Z,21.41
2023-05-21T13:11:34.722Z,21.42
2023-05-21T13:12:39.974Z,21.42
2023-05-21T13:13:45.503Z,21.40
2023-05-21T13:14:52.040Z,21.40
2023-05-21T13:15:57.096Z,21.44
2023-05-21T13:17:01.602Z,21.44
2023-05-21T13:18:06.497Z,21.34
2023-05-21T13:19:11.579Z,21.26
2023-05-21T13:20:18.613Z,21.20
2023-05-21T13:21:23.117Z,21.11
2023-05-21T13:22:27.778Z,21.09
2023-05-21T13:23:33.362Z,21.11
2023-05-21T13:24:39.924Z,21.14
2023-05-21T13:25:44.554Z,21.08
2023-05-21T13:26:49.770Z,21.12
2023-05-21T13:27:52.575Z,21.13
2023-05-21T13:31:28.471Z,21.06
2023-05-21T13:32:33.312Z,20.95
2023-05-21T13:33:38.962Z,20.90
2023-05-21T13:34:43.179Z,20.87
2023-05-21T13:35:48.139Z,20.85
2023-05-21T13:36:53.282Z,20.82
2023-05-21T13:37:58.058Z,20.81
2023-05-21T13:39:02.662Z,20.81
2023-05-21T13:40:08.467Z,20.77
2023-05-21T13:41:12.884Z,20.70
2023-05-21T13:42:17.894Z,20.57
2023-05-21T13:43:22.845Z,20.58
2023-05-21T13:44:27.399Z,20.54
2023-05-21T13:45:33.121Z,20.53
2023-05-21T13:46:37.782Z,20.60
2023-05-21T13:47:43.351Z,20.66
2023-05-21T13:48:45.990Z,20.75
2023-05-21T13:49:50.727Z,20.76
2023-05-21T13:50:55.168Z,20.68
2023-05-21T13:52:00.444Z,20.58
2023-05-21T13:53:05.571Z,20.59
2023-05-21T13:54:10.048Z,20.62
2023-05-21T13:55:15.224Z,20.68
2023-05-21T13:56:20.345Z,20.68
2023-05-21T13:57:25.545Z,20.75
2023-05-21T13:58:29.837Z,20.68
2023-05-21T13:59:34.997Z,20.58
2023-05-21T14:00:37.675Z,20.47
2023-05-21T14:01:42.845Z,20.34
2023-05-21T14:02:45.422Z,20.32
2023-05-21T14:03:50.440Z,20.34
2023-05-21T14:04:55.038Z,20.38
2023-05-21T14:05:59.987Z,20.40
2023-05-21T14:07:04.258Z,20.35
2023-05-21T14:08:06.561Z,20.33
2023-05-21T14:09:10.777Z,20.32
2023-05-21T14:10:15.445Z,20.28
2023-05-21T14:11:17.771Z,20.30
2023-05-21T14:12:22.860Z,20.28
2023-05-21T14:13:27.539Z,20.21
2023-05-21T14:14:29.793Z,20.15
2023-05-21T14:15:32.103Z,20.09
2023-05-21T14:16:36.765Z,20.08
2023-05-21T14:17:41.403Z,20.10
2023-05-21T14:18:46.569Z,20.12
2023-05-21T14:19:51.673Z,20.16
2023-05-21T14:20:56.318Z,20.19
2023-05-21T14:22:01.638Z,20.18
2023-05-21T14:23:04.910Z,20.15
2023-05-21T14:24:10.896Z,20.11
2023-05-21T14:25:15.629Z,20.09
2023-05-21T14:26:20.738Z,20.09
2023-05-21T14:27:25.377Z,20.11
2023-05-21T14:28:27.664Z,20.12
2023-05-21T14:29:32.009Z,20.13
2023-05-21T14:30:36.999Z,20.07
2023-05-21T14:31:42.093Z,20.04
2023-05-21T14:32:46.810Z,20.07
2023-05-21T14:33:51.293Z,20.10
2023-05-21T14:34:56.491Z,20.14
2023-05-21T14:36:01.571Z,20.15
2023-05-21T14:37:07.981Z,20.15